ODJ weather

Ouanda Djallé Airport
Ouanda Djallé, Vakaga, Central African Republic

Public forecast

Using degrees Celsius for public forecast. Weather courtesy of forecast.io.

Closest aviation weather report (METAR) to Ouanda Djallé Airport

Closest report is Sarh Airport, 261.8 nm (484.9 km) W. Retrieved 2020/02/21 05:00 UTC (54 minutes ago):

FTTA 210500Z 00000KT CAVOK 25/09 Q1010

Closest aviation forecast (TAF) to Ouanda Djallé Airport

Forecast is more than 12 hours old.

Closest forecast is Raga Airport, 174.0 nm (322.3 km) E. Retrieved 2014/04/09 06:00 UTC (6 years ago):

TAF HSRJ 090400Z 0906/1012 18005G15KT 9999 SCT040 BKN140 TEMPO 0912/0918 6000 TSRA FEW045CB TEMPO 0918/0924 9999 SCT040 BKN140